Time;durP1;ratioP1;P1;durP2;ratioP2;P2;SDS_P1;SDS_P2;PMS_P1;PMS_P2;Temp;Humidity;BMP_temperature;BMP_pressure;BME280_temperature;BME280_humidity;BME280_pressure;Samples;Min_cycle;Max_cycle;Signal;HPM_P1;HPM_P2
2023/09/12 00:00:06;;;;;;;1.30;1.20;;;;;;;14.36;nan;61068.22;4993421;28;20259;-67
2023/09/12 00:02:31;;;;;;;0.90;0.90;;;;;;;14.49;nan;60954.34;4993324;28;20239;-67
2023/09/12 00:04:57;;;;;;;1.05;1.05;;;;;;;14.46;nan;60961.84;4993688;28;20169;-67
2023/09/12 00:07:22;;;;;;;1.60;1.50;;;;;;;14.15;nan;60922.34;4993276;28;20639;-68
2023/09/12 00:09:47;;;;;;;0.85;0.85;;;;;;;14.09;nan;60907.34;4993459;28;20232;-68
2023/09/12 00:12:14;;;;;;;1.23;1.23;;;;;;;14.05;nan;60885.44;4993274;28;20252;-67
2023/09/12 00:14:39;;;;;;;1.20;1.10;;;;;;;14.18;nan;61058.19;4992860;28;20201;-69
2023/09/12 00:17:05;;;;;;;1.33;1.23;;;;;;;13.94;nan;60857.66;4992806;28;20201;-68
2023/09/12 00:19:30;;;;;;;0.85;0.85;;;;;;;14.05;nan;60884.88;4992882;28;20235;-69
2023/09/12 00:21:56;;;;;;;0.93;0.93;;;;;;;14.34;nan;61015.09;4993050;28;20168;-66
2023/09/12 00:24:21;;;;;;;1.00;1.00;;;;;;;14.44;nan;60959.00;4992795;28;20215;-69
2023/09/12 00:26:46;;;;;;;0.98;0.98;;;;;;;14.39;nan;60948.81;4992626;28;20173;-68
2023/09/12 00:29:12;;;;;;;1.13;1.13;;;;;;;14.24;nan;60946.78;4993239;28;20646;-67
2023/09/12 00:31:37;;;;;;;1.05;1.05;;;;;;;14.06;nan;60894.25;4992820;28;20200;-67
2023/09/12 00:34:03;;;;;;;0.98;0.98;;;;;;;13.83;nan;60850.41;4993093;28;20228;-68
2023/09/12 00:36:28;;;;;;;0.80;0.80;;;;;;;13.65;nan;60810.22;4992544;28;20204;-67
2023/09/12 00:38:54;;;;;;;0.90;0.90;;;;;;;13.72;nan;61069.09;4992743;28;20165;-67
2023/09/12 00:41:19;;;;;;;1.20;1.20;;;;;;;13.68;nan;60831.56;4992199;28;20177;-67
2023/09/12 00:43:45;;;;;;;0.90;0.90;;;;;;;13.62;nan;60955.16;4992957;28;20169;-68
2023/09/12 00:46:10;;;;;;;0.98;0.98;;;;;;;13.66;nan;60824.19;4992380;28;20188;-67
2023/09/12 00:48:37;;;;;;;0.93;0.90;;;;;;;13.59;nan;60959.47;4992628;28;20168;-68
2023/09/12 00:51:04;;;;;;;1.70;1.60;;;;;;;13.35;nan;60876.00;4992453;28;20251;-67
2023/09/12 00:53:29;;;;;;;0.85;0.85;;;;;;;13.24;nan;60836.56;4992590;28;20223;-67
2023/09/12 00:55:58;;;;;;;0.93;0.93;;;;;;;13.28;nan;60833.34;4992219;28;20292;-67
2023/09/12 00:58:25;;;;;;;0.85;0.85;;;;;;;13.42;nan;60763.28;4992475;28;20227;-67
2023/09/12 01:00:50;;;;;;;0.90;0.90;;;;;;;13.34;nan;60733.81;4992415;28;20168;-66
2023/09/12 01:03:16;;;;;;;0.90;0.90;;;;;;;13.48;nan;60739.25;4992427;28;20183;-68
2023/09/12 01:05:43;;;;;;;1.45;1.35;;;;;;;13.45;nan;60756.41;4992176;28;20176;-67
2023/09/12 01:08:09;;;;;;;0.80;0.80;;;;;;;13.30;nan;60765.78;5000829;28;20227;-67
2023/09/12 01:10:34;;;;;;;2.85;1.35;;;;;;;13.10;nan;60607.97;5011390;28;20195;-68
2023/09/12 01:13:00;;;;;;;0.98;0.98;;;;;;;13.22;nan;60802.97;5010599;28;20187;-67
2023/09/12 01:15:25;;;;;;;1.45;1.20;;;;;;;13.17;nan;60772.28;5011525;28;20199;-67
2023/09/12 01:17:51;;;;;;;1.00;1.00;;;;;;;13.51;nan;60891.44;5011668;28;20194;-67
2023/09/12 01:20:25;;;;;;;0.98;0.98;;;;;;;13.21;nan;60684.44;5011871;28;20643;-67
2023/09/12 01:23:09;;;;;;;1.45;1.35;;;;;;;13.53;nan;60765.97;5010203;28;20194;-66
2023/09/12 01:25:43;;;;;;;0.90;0.90;;;;;;;13.50;nan;60767.16;5011984;28;20254;-65
2023/09/12 01:28:10;;;;;;;0.90;0.90;;;;;;;13.39;nan;60747.09;5011820;28;20175;-67
2023/09/12 01:30:37;;;;;;;1.30;1.23;;;;;;;13.32;nan;60691.06;5011687;28;20176;-67
2023/09/12 01:33:03;;;;;;;1.30;1.20;;;;;;;13.21;nan;60774.19;5011868;28;20160;-67
2023/09/12 01:35:29;;;;;;;1.00;1.00;;;;;;;13.28;nan;60707.66;5011423;28;20200;-69
2023/09/12 01:37:54;;;;;;;0.82;0.82;;;;;;;13.08;nan;60676.97;5011565;28;20185;-68
2023/09/12 01:40:33;;;;;;;0.98;0.98;;;;;;;13.05;nan;60653.09;5011739;28;20263;-67
2023/09/12 01:43:00;;;;;;;0.90;0.90;;;;;;;13.08;nan;60828.25;5011481;28;20175;-66
2023/09/12 01:45:27;;;;;;;0.90;0.90;;;;;;;13.11;nan;60747.59;5011676;28;20227;-67
2023/09/12 01:47:53;;;;;;;1.10;1.10;;;;;;;12.98;nan;60566.34;5011161;28;20185;-65
2023/09/12 01:50:20;;;;;;;1.25;1.25;;;;;;;13.15;nan;60672.56;5011573;28;20204;-67
2023/09/12 01:52:46;;;;;;;0.90;0.90;;;;;;;13.17;nan;60633.78;5011489;28;20203;-67
2023/09/12 01:55:12;;;;;;;1.00;1.00;;;;;;;13.03;nan;60782.19;5011342;28;20200;-68
2023/09/12 01:57:38;;;;;;;1.35;1.10;;;;;;;13.17;nan;60669.13;5011235;28;20551;-67
2023/09/12 02:00:04;;;;;;;1.98;1.23;;;;;;;13.11;nan;60678.34;5011498;28;20184;-66
2023/09/12 02:02:29;;;;;;;1.75;1.35;;;;;;;13.31;nan;60738.13;5011097;28;20171;-68
2023/09/12 02:05:18;;;;;;;1.05;1.02;;;;;;;13.29;nan;60759.53;5011157;28;20275;-68
2023/09/12 02:07:44;;;;;;;1.00;1.00;;;;;;;13.23;nan;60943.16;5011189;28;20204;-67
2023/09/12 02:10:12;;;;;;;1.05;1.05;;;;;;;13.29;nan;60674.88;5011472;28;20193;-68
2023/09/12 02:12:38;;;;;;;0.93;0.93;;;;;;;13.09;nan;60701.16;5011556;28;20173;-67
2023/09/12 02:15:04;;;;;;;0.90;0.90;;;;;;;13.11;nan;60616.25;5011016;28;20571;-69
2023/09/12 02:17:30;;;;;;;1.00;1.00;;;;;;;12.99;nan;60577.72;5012741;28;20176;-67
2023/09/12 02:19:55;;;;;;;1.35;1.25;;;;;;;13.19;nan;60702.13;5013402;28;20179;-68
2023/09/12 02:22:21;;;;;;;1.30;1.20;;;;;;;13.14;nan;60686.84;5014752;28;20180;-68
2023/09/12 02:24:46;;;;;;;1.00;1.00;;;;;;;12.91;nan;60517.47;5014726;28;20204;-68
2023/09/12 02:27:11;;;;;;;1.00;1.00;;;;;;;13.14;nan;60699.09;5014723;28;20203;-68
2023/09/12 02:29:39;;;;;;;1.20;1.20;;;;;;;13.06;nan;60574.72;5014205;28;20234;-67
2023/09/12 02:32:05;;;;;;;1.05;1.05;;;;;;;13.04;nan;60787.88;5014459;28;20184;-68
2023/09/12 02:34:30;;;;;;;1.10;1.10;;;;;;;13.10;nan;60564.38;5014569;28;20200;-68
2023/09/12 02:36:56;;;;;;;1.40;1.30;;;;;;;13.05;nan;60542.84;5014406;28;20176;-66
2023/09/12 02:39:21;;;;;;;1.00;1.00;;;;;;;12.91;nan;60453.41;5014522;28;20172;-68
2023/09/12 02:41:46;;;;;;;0.93;0.93;;;;;;;12.78;nan;60393.31;5014097;28;20172;-68
2023/09/12 02:44:12;;;;;;;0.85;0.85;;;;;;;12.80;nan;60372.50;5013847;28;20176;-67
2023/09/12 02:46:37;;;;;;;1.00;1.00;;;;;;;12.87;nan;60438.69;5014529;28;20168;-67
2023/09/12 02:49:03;;;;;;;1.02;1.02;;;;;;;12.96;nan;60466.69;5014171;28;20631;-67
2023/09/12 02:51:28;;;;;;;1.30;1.30;;;;;;;12.93;nan;60586.38;5014255;28;20194;-66
2023/09/12 02:53:54;;;;;;;2.03;1.63;;;;;;;12.79;nan;60465.63;5014224;28;20646;-67
2023/09/12 02:56:20;;;;;;;1.15;1.10;;;;;;;12.76;nan;60411.03;5014067;28;20203;-68
2023/09/12 02:58:48;;;;;;;1.10;1.00;;;;;;;12.78;nan;60631.06;5013557;28;20180;-67
2023/09/12 03:01:19;;;;;;;1.23;1.13;;;;;;;12.65;nan;60514.03;5014121;28;20176;-67
2023/09/12 03:03:47;;;;;;;1.08;1.08;;;;;;;12.62;nan;60526.59;5017611;28;20179;-68
2023/09/12 03:06:14;;;;;;;1.15;1.10;;;;;;;12.67;nan;60501.44;5016789;28;20180;-66
2023/09/12 03:08:40;;;;;;;0.95;0.95;;;;;;;12.78;nan;60369.69;5013688;28;20702;-67
2023/09/12 03:11:07;;;;;;;0.95;0.95;;;;;;;12.96;nan;60402.59;5013598;28;20255;-66
2023/09/12 03:13:33;;;;;;;1.00;1.00;;;;;;;12.97;nan;60382.66;5013487;28;20627;-66
2023/09/12 03:15:59;;;;;;;1.00;1.00;;;;;;;12.89;nan;60448.63;5013629;28;20199;-66
2023/09/12 03:18:24;;;;;;;18.77;1.88;;;;;;;12.78;nan;60436.31;5012388;28;20617;-66
2023/09/12 03:20:50;;;;;;;1.10;1.10;;;;;;;12.88;nan;60493.06;5013458;28;20210;-67
2023/09/12 03:23:15;;;;;;;1.08;1.08;;;;;;;12.99;nan;60577.72;5014191;28;20219;-66
2023/09/12 03:25:40;;;;;;;1.15;1.15;;;;;;;12.84;nan;60487.16;5014798;28;20666;-66
2023/09/12 03:28:07;;;;;;;1.00;1.00;;;;;;;12.67;nan;60424.56;5012695;28;20263;-66
2023/09/12 03:30:36;;;;;;;0.90;0.90;;;;;;;12.71;nan;60513.06;5012853;28;20183;-67
2023/09/12 03:33:02;;;;;;;1.08;1.08;;;;;;;12.91;nan;60665.59;5012739;28;20674;-67
2023/09/12 03:35:32;;;;;;;1.20;1.10;;;;;;;12.93;nan;60503.78;5013132;28;20196;-67
2023/09/12 03:37:57;;;;;;;1.00;1.00;;;;;;;12.92;nan;60574.44;5013383;28;20227;-65
2023/09/12 03:40:23;;;;;;;1.83;1.73;;;;;;;12.87;nan;60617.53;5013123;28;20176;-67
2023/09/12 03:42:48;;;;;;;0.90;0.90;;;;;;;12.99;nan;60511.06;5013218;28;20191;-67
2023/09/12 03:45:13;;;;;;;1.17;1.17;;;;;;;12.82;nan;60522.78;5013094;28;20255;-67
2023/09/12 03:47:39;;;;;;;1.77;1.67;;;;;;;12.89;nan;60327.59;5013178;28;20199;-67
2023/09/12 03:50:05;;;;;;;1.10;1.10;;;;;;;11.79;nan;60255.78;5011858;28;20173;-67
2023/09/12 03:52:30;;;;;;;1.27;1.20;;;;;;;12.86;nan;60404.25;5012846;28;20156;-67
2023/09/12 03:54:55;;;;;;;0.90;0.90;;;;;;;12.98;nan;60376.66;5012530;28;20243;-67
2023/09/12 03:57:21;;;;;;;2.25;1.20;;;;;;;12.79;nan;60320.13;5012596;28;20591;-65
2023/09/12 03:59:47;;;;;;;1.45;1.35;;;;;;;12.59;nan;60062.13;5012855;28;20210;-67
2023/09/12 04:02:12;;;;;;;1.45;1.35;;;;;;;12.62;nan;60167.94;5012760;28;20172;-66
2023/09/12 04:04:38;;;;;;;0.90;0.90;;;;;;;12.59;nan;60182.53;5012728;28;20176;-68
2023/09/12 04:07:04;;;;;;;1.33;1.25;;;;;;;12.67;nan;60096.63;5012627;28;20215;-68
2023/09/12 04:09:29;;;;;;;1.00;1.00;;;;;;;12.65;nan;59929.91;5011960;28;20235;-66
2023/09/12 04:11:54;;;;;;;1.08;1.08;;;;;;;12.37;nan;59654.19;5012539;28;20218;-67
2023/09/12 04:14:21;;;;;;;1.00;1.00;;;;;;;12.54;nan;59462.41;5012663;28;20199;-69
2023/09/12 04:16:46;;;;;;;1.00;1.00;;;;;;;12.46;nan;59791.59;5012610;28;20234;-67
2023/09/12 04:19:13;;;;;;;1.90;1.80;;;;;;;12.55;nan;59985.41;5012548;28;20187;-65
2023/09/12 04:21:38;;;;;;;1.10;1.10;;;;;;;13.21;nan;60440.25;5012577;28;20321;-69
2023/09/12 04:24:05;;;;;;;1.08;1.08;;;;;;;13.09;nan;60699.16;5012239;28;20583;-65
2023/09/12 04:26:30;;;;;;;0.90;0.90;;;;;;;13.06;nan;60462.47;5012348;28;20175;-66
2023/09/12 04:28:56;;;;;;;0.93;0.93;;;;;;;12.92;nan;60415.50;5012044;28;20326;-66
2023/09/12 04:31:21;;;;;;;0.85;0.85;;;;;;;12.74;nan;60511.84;5012440;28;20168;-65
2023/09/12 04:33:46;;;;;;;1.13;1.13;;;;;;;12.90;nan;60408.72;5012157;28;20203;-65
2023/09/12 04:36:12;;;;;;;1.00;1.00;;;;;;;12.83;nan;60375.28;5011997;28;20207;-65
2023/09/12 04:38:37;;;;;;;0.80;0.80;;;;;;;12.95;nan;60427.09;5011791;28;20266;-67
2023/09/12 04:41:04;;;;;;;1.55;1.45;;;;;;;12.84;nan;60474.34;5011800;28;20173;-66
2023/09/12 04:43:33;;;;;;;1.15;1.15;;;;;;;13.03;nan;60510.41;5012174;28;20175;-67
2023/09/12 04:45:58;;;;;;;0.80;0.80;;;;;;;13.22;nan;60495.75;5011963;28;20176;-68
2023/09/12 04:48:24;;;;;;;0.70;0.70;;;;;;;13.31;nan;60584.25;5012437;28;20701;-68
2023/09/12 04:50:49;;;;;;;0.88;0.88;;;;;;;13.67;nan;60562.97;5016170;28;20192;-66
2023/09/12 04:53:15;;;;;;;1.20;1.20;;;;;;;13.68;nan;60615.97;5011474;28;20188;-67
2023/09/12 04:55:40;;;;;;;0.95;0.95;;;;;;;13.70;nan;60640.75;5011779;28;20553;-65
2023/09/12 04:58:06;;;;;;;1.10;1.10;;;;;;;13.52;nan;60785.34;5011827;28;20195;-65
2023/09/12 05:00:32;;;;;;;1.10;1.10;;;;;;;13.87;nan;60777.88;5011936;28;20179;-66
2023/09/12 05:02:58;;;;;;;0.80;0.80;;;;;;;14.32;nan;60847.84;5011983;28;20203;-67
2023/09/12 05:05:23;;;;;;;1.30;1.15;;;;;;;14.27;nan;60826.81;5011823;28;20210;-67
2023/09/12 05:07:51;;;;;;;1.05;1.05;;;;;;;14.50;nan;60996.59;5010367;28;20323;-66
2023/09/12 05:10:16;;;;;;;1.13;1.13;;;;;;;14.47;nan;60977.81;5011738;28;20199;-68
2023/09/12 05:12:42;;;;;;;1.10;1.10;;;;;;;14.90;nan;61177.97;5011595;28;20577;-66
2023/09/12 05:15:07;;;;;;;1.23;1.20;;;;;;;15.08;nan;61004.75;4998580;28;20698;-66
2023/09/12 05:17:33;;;;;;;0.90;0.90;;;;;;;15.09;nan;60905.00;4991914;28;20256;-67
2023/09/12 05:19:58;;;;;;;6.15;2.55;;;;;;;15.47;nan;61321.00;4991809;28;20179;-66
2023/09/12 05:22:23;;;;;;;0.90;0.90;;;;;;;15.49;nan;61169.34;4991826;28;20256;-66
2023/09/12 05:24:49;;;;;;;1.55;1.45;;;;;;;15.70;nan;61089.50;4991991;28;20578;-68
2023/09/12 05:27:15;;;;;;;1.58;1.48;;;;;;;15.67;nan;61191.72;4992092;28;20208;-66
2023/09/12 05:29:40;;;;;;;0.93;0.93;;;;;;;15.99;nan;61128.78;4992086;28;20180;-66
2023/09/12 05:32:06;;;;;;;1.00;1.00;;;;;;;15.96;nan;61125.41;4991935;28;20180;-66
2023/09/12 05:34:31;;;;;;;0.80;0.80;;;;;;;16.03;nan;61213.19;4992027;28;20176;-66
2023/09/12 05:36:57;;;;;;;1.98;1.55;;;;;;;16.59;nan;61224.84;4991852;28;20195;-66
2023/09/12 05:39:22;;;;;;;1.38;1.27;;;;;;;16.42;nan;61339.69;4991844;28;20169;-67
2023/09/12 05:41:48;;;;;;;0.88;0.88;;;;;;;16.62;nan;61176.63;4991957;28;20176;-66
2023/09/12 05:44:17;;;;;;;0.80;0.80;;;;;;;16.45;nan;61285.81;4991799;28;20231;-65
2023/09/12 05:46:47;;;;;;;0.80;0.80;;;;;;;16.82;nan;61265.16;4991848;28;20537;-66
2023/09/12 05:49:14;;;;;;;1.15;0.88;;;;;;;16.65;nan;61207.81;4991832;28;20173;-66
2023/09/12 05:51:40;;;;;;;1.00;1.00;;;;;;;17.04;nan;61246.13;4991332;28;20660;-67
2023/09/12 05:54:07;;;;;;;0.88;0.88;;;;;;;17.37;nan;61254.97;4995450;28;20181;-65
2023/09/12 05:56:33;;;;;;;0.90;0.90;;;;;;;17.25;nan;61432.47;4995048;28;20622;-68
2023/09/12 05:58:59;;;;;;;0.90;0.90;;;;;;;17.56;nan;61317.75;4995489;28;20177;-67
2023/09/12 06:01:24;;;;;;;0.60;0.60;;;;;;;17.61;nan;61464.94;4995360;28;20176;-67
2023/09/12 06:03:49;;;;;;;0.93;0.93;;;;;;;17.26;nan;61185.19;4995411;28;20235;-68
2023/09/12 06:06:15;;;;;;;1.58;0.90;;;;;;;17.34;nan;61251.56;5004737;28;20661;-67
2023/09/12 06:08:41;;;;;;;0.60;0.60;;;;;;;17.60;nan;61332.06;5016063;28;20638;-68
2023/09/12 06:11:06;;;;;;;0.70;0.70;;;;;;;17.92;nan;61352.13;5014561;28;20266;-67
2023/09/12 06:13:32;;;;;;;0.65;0.65;;;;;;;18.17;nan;61411.41;5014847;28;20649;-68
2023/09/12 06:15:58;;;;;;;0.63;0.63;;;;;;;18.46;nan;61671.88;5014445;28;20683;-67
2023/09/12 06:18:25;;;;;;;0.88;0.88;;;;;;;18.33;nan;61540.16;5014756;28;20198;-68
2023/09/12 06:20:50;;;;;;;0.60;0.60;;;;;;;18.37;nan;61567.97;5018542;28;20246;-68
2023/09/12 06:23:15;;;;;;;0.80;0.80;;;;;;;18.43;nan;61533.38;4810355;28;20966;-68
2023/09/12 06:25:41;;;;;;;0.55;0.55;;;;;;;18.67;nan;61464.28;4854010;28;20200;-69
2023/09/12 06:28:10;;;;;;;1.75;1.48;;;;;;;18.58;nan;61452.06;5014022;28;20557;-68
2023/09/12 06:30:35;;;;;;;0.70;0.70;;;;;;;19.05;nan;61478.78;5014363;28;20180;-68
2023/09/12 06:33:00;;;;;;;0.95;0.95;;;;;;;19.31;nan;61753.75;5014041;28;20251;-67
2023/09/12 06:35:26;;;;;;;1.00;0.93;;;;;;;19.39;nan;61545.75;5014460;28;20666;-69
2023/09/12 06:37:51;;;;;;;0.82;0.82;;;;;;;19.14;nan;61633.44;5014011;28;20168;-69
2023/09/12 06:40:17;;;;;;;0.60;0.60;;;;;;;19.53;nan;61666.75;5014081;28;20176;-67
2023/09/12 06:42:43;;;;;;;0.60;0.60;;;;;;;19.81;nan;61590.19;5014973;28;20160;-68
2023/09/12 06:45:09;;;;;;;0.55;0.55;;;;;;;19.81;nan;61641.47;5014302;28;20168;-68
2023/09/12 06:47:34;;;;;;;0.85;0.70;;;;;;;19.75;nan;61598.38;5014260;28;20176;-67
2023/09/12 06:50:00;;;;;;;0.70;0.70;;;;;;;19.89;nan;61585.72;5014250;28;20211;-68
2023/09/12 06:52:25;;;;;;;11.00;1.30;;;;;;;19.94;nan;61739.19;5014187;28;20678;-67
2023/09/12 06:54:50;;;;;;;0.70;0.70;;;;;;;19.84;nan;61582.63;5014133;28;20254;-67
2023/09/12 06:57:16;;;;;;;0.60;0.60;;;;;;;20.03;nan;61809.06;5014258;28;20172;-67
2023/09/12 06:59:41;;;;;;;1.98;0.95;;;;;;;20.39;nan;61633.47;5014358;28;20180;-67
2023/09/12 07:02:07;;;;;;;0.60;0.60;;;;;;;20.66;nan;61653.69;5014167;28;20390;-67
2023/09/12 07:04:32;;;;;;;0.80;0.80;;;;;;;20.65;nan;61658.31;5013702;28;20184;-66
2023/09/12 07:06:58;;;;;;;0.50;0.50;;;;;;;20.63;nan;61588.53;5014135;28;20255;-68
2023/09/12 07:09:23;;;;;;;0.65;0.65;;;;;;;20.81;nan;61722.06;5013959;28;20223;-67
2023/09/12 07:11:49;;;;;;;0.90;0.90;;;;;;;20.73;nan;61651.78;5013988;28;20651;-67
2023/09/12 07:14:15;;;;;;;0.60;0.60;;;;;;;21.11;nan;61699.50;5014274;28;20178;-67
2023/09/12 07:16:40;;;;;;;0.60;0.60;;;;;;;21.37;nan;61727.84;5013619;28;20210;-67
2023/09/12 07:19:06;;;;;;;0.80;0.80;;;;;;;21.42;nan;61869.28;5014311;28;20176;-68
2023/09/12 07:21:32;;;;;;;1.10;1.05;;;;;;;21.47;nan;61861.97;5013807;28;20176;-68
2023/09/12 07:23:57;;;;;;;1.45;1.35;;;;;;;21.44;nan;61746.19;5013524;28;20627;-68
2023/09/12 07:26:23;;;;;;;0.65;0.65;;;;;;;21.68;nan;61932.06;5013967;28;20200;-67
2023/09/12 07:28:48;;;;;;;0.60;0.60;;;;;;;21.54;nan;61828.31;5012700;28;20701;-67
2023/09/12 07:31:14;;;;;;;0.63;0.63;;;;;;;21.48;nan;61902.09;5013895;28;20175;-68
2023/09/12 07:33:40;;;;;;;0.50;0.50;;;;;;;21.40;nan;61736.47;5013368;28;20204;-67
2023/09/12 07:36:06;;;;;;;0.93;0.93;;;;;;;21.70;nan;61892.72;5013273;28;20196;-68
2023/09/12 07:38:32;;;;;;;0.82;0.68;;;;;;;21.96;nan;61836.44;5013308;28;20179;-68
2023/09/12 07:40:58;;;;;;;0.65;0.65;;;;;;;22.08;nan;61945.78;5013735;28;20259;-68
2023/09/12 07:43:24;;;;;;;0.98;0.98;;;;;;;22.68;nan;61976.44;5013442;28;20168;-68
2023/09/12 07:45:49;;;;;;;0.80;0.80;;;;;;;22.31;nan;62130.19;5013464;28;20635;-67
2023/09/12 07:48:15;;;;;;;0.60;0.60;;;;;;;22.05;nan;61861.16;5013232;28;20180;-67
2023/09/12 07:50:41;;;;;;;0.90;0.90;;;;;;;22.34;nan;61899.28;5013395;28;20600;-68
2023/09/12 07:53:07;;;;;;;0.77;0.77;;;;;;;22.68;nan;61916.53;5013144;28;20183;-68
2023/09/12 07:55:46;;;;;;;1.02;1.02;;;;;;;22.47;nan;61901.06;5013199;28;20234;-68
2023/09/12 07:58:24;;;;;;;0.90;0.90;;;;;;;22.64;nan;61917.75;5013384;28;20653;-68
2023/09/12 08:00:49;;;;;;;0.50;0.50;;;;;;;22.71;nan;61946.00;5013064;28;20203;-68
2023/09/12 08:03:15;;;;;;;1.02;0.98;;;;;;;22.77;nan;61932.56;5014776;28;20211;-67
2023/09/12 08:05:41;;;;;;;0.50;0.50;;;;;;;23.28;nan;62025.91;5013216;28;20232;-68
2023/09/12 08:08:06;;;;;;;0.60;0.60;;;;;;;23.32;nan;62017.41;5012845;28;20223;-68
2023/09/12 08:10:31;;;;;;;0.68;0.68;;;;;;;23.11;nan;62058.69;5012871;28;20636;-68
2023/09/12 08:12:57;;;;;;;1.13;1.00;;;;;;;23.32;nan;62007.56;5012230;28;20176;-68
2023/09/12 08:15:23;;;;;;;0.50;0.50;;;;;;;23.30;nan;62044.41;5019122;28;20199;-68
2023/09/12 08:17:51;;;;;;;0.50;0.50;;;;;;;23.53;nan;62017.84;5015916;28;20184;-66
2023/09/12 08:20:20;;;;;;;0.68;0.68;;;;;;;23.04;nan;62210.31;5014463;28;20183;-66
2023/09/12 08:22:46;;;;;;;0.63;0.63;;;;;;;23.18;nan;61988.44;5012794;28;20228;-67
2023/09/12 08:25:12;;;;;;;0.60;0.60;;;;;;;23.20;nan;62121.66;5014888;28;20618;-68
2023/09/12 08:27:38;;;;;;;0.70;0.70;;;;;;;23.64;nan;62082.53;5012817;28;20207;-67
2023/09/12 08:30:04;;;;;;;0.70;0.70;;;;;;;23.64;nan;62076.75;5014659;28;20226;-68
2023/09/12 08:32:29;;;;;;;0.93;0.90;;;;;;;23.80;nan;62092.38;5003739;28;20172;-67
2023/09/12 08:34:55;;;;;;;0.52;0.52;;;;;;;23.76;nan;62091.00;5016132;28;20375;-68
2023/09/12 08:37:20;;;;;;;0.50;0.50;;;;;;;23.96;nan;62019.22;5013830;28;20673;-68
2023/09/12 08:39:45;;;;;;;0.68;0.68;;;;;;;24.12;nan;62230.06;5015517;28;20572;-67
2023/09/12 08:42:15;;;;;;;0.85;0.85;;;;;;;24.33;nan;62133.31;5014697;28;20234;-66
2023/09/12 08:44:42;;;;;;;0.70;0.70;;;;;;;24.25;nan;62252.75;5014515;28;20211;-67
2023/09/12 08:47:09;;;;;;;0.50;0.50;;;;;;;24.00;nan;62054.53;5014737;28;20176;-68
2023/09/12 08:49:36;;;;;;;0.60;0.60;;;;;;;24.10;nan;62126.53;5013534;28;20183;-67
2023/09/12 08:52:01;;;;;;;0.60;0.60;;;;;;;23.76;nan;62059.13;5015935;28;20239;-67
2023/09/12 08:54:27;;;;;;;0.63;0.63;;;;;;;23.70;nan;62029.38;5012920;28;20187;-66
2023/09/12 08:56:54;;;;;;;0.60;0.60;;;;;;;23.59;nan;62024.09;5016325;28;20179;-67
2023/09/12 08:59:20;;;;;;;1.02;0.93;;;;;;;23.47;nan;62047.53;5012807;28;20675;-66
2023/09/12 09:01:46;;;;;;;1.45;0.90;;;;;;;23.69;nan;62155.50;5016155;28;20655;-67
2023/09/12 09:04:12;;;;;;;0.57;0.57;;;;;;;23.90;nan;62208.16;5012432;28;20188;-69
2023/09/12 09:06:41;;;;;;;0.50;0.50;;;;;;;24.26;nan;62410.03;5016330;28;20184;-67
2023/09/12 09:09:07;;;;;;;0.57;0.57;;;;;;;21.37;nan;63724.75;5011693;28;20219;-68
2023/09/12 09:11:34;;;;;;;0.65;0.65;;;;;;;24.40;nan;62165.38;5012987;28;20191;-68
2023/09/12 09:14:02;;;;;;;0.30;0.30;;;;;;;24.68;nan;62298.66;5011575;28;20564;-68
2023/09/12 09:16:28;;;;;;;0.60;0.60;;;;;;;25.20;nan;62231.34;5016835;28;20214;-68
2023/09/12 09:18:55;;;;;;;0.80;0.80;;;;;;;25.27;nan;62281.75;5012395;28;20184;-68
2023/09/12 09:21:26;;;;;;;0.80;0.80;;;;;;;25.31;nan;62134.56;5016844;28;20184;-69
2023/09/12 09:23:52;;;;;;;1.17;1.08;;;;;;;25.12;nan;62191.41;5011920;28;20184;-68
2023/09/12 09:26:18;;;;;;;0.57;0.57;;;;;;;25.02;nan;62174.78;5016622;28;20199;-68
2023/09/12 09:28:44;;;;;;;1.27;1.05;;;;;;;25.24;nan;62317.56;5015623;28;20184;-69
2023/09/12 09:31:12;;;;;;;0.60;0.60;;;;;;;25.00;nan;62314.28;5015792;28;20278;-68
2023/09/12 09:33:41;;;;;;;0.50;0.50;;;;;;;25.29;nan;62286.66;5016755;28;20176;-69
2023/09/12 09:36:07;;;;;;;0.68;0.68;;;;;;;25.49;nan;62369.66;5015438;28;20675;-67
2023/09/12 09:38:36;;;;;;;0.50;0.50;;;;;;;25.42;nan;62283.16;5015152;28;20288;-69
2023/09/12 09:41:06;;;;;;;0.40;0.40;;;;;;;25.60;nan;62292.69;5015167;28;20168;-69
2023/09/12 09:43:32;;;;;;;0.68;0.68;;;;;;;25.59;nan;62390.41;5015358;28;20682;-69
2023/09/12 09:45:58;;;;;;;0.50;0.50;;;;;;;25.38;nan;62249.81;5015268;28;20164;-67
2023/09/12 09:48:26;;;;;;;0.63;0.63;;;;;;;25.69;nan;62397.19;5015208;28;20172;-68
2023/09/12 09:50:53;;;;;;;0.50;0.50;;;;;;;25.88;nan;62455.00;5019993;28;20569;-68
2023/09/12 09:53:39;;;;;;;1.65;1.40;;;;;;;25.89;nan;62309.47;5015294;28;20184;-68
2023/09/12 09:56:12;;;;;;;0.40;0.40;;;;;;;25.90;nan;62342.03;5020152;28;20298;-68
2023/09/12 09:58:57;;;;;;;0.77;0.55;;;;;;;25.98;nan;62408.22;5015231;28;20180;-68
2023/09/12 10:01:28;;;;;;;0.47;0.47;;;;;;;26.02;nan;62434.31;5019939;28;20219;-68
2023/09/12 10:03:59;;;;;;;0.43;0.43;;;;;;;26.31;nan;62388.31;5015093;28;20203;-69
2023/09/12 10:06:26;;;;;;;1.00;1.00;;;;;;;26.33;nan;62380.66;5019730;28;20176;-69
2023/09/12 10:08:53;;;;;;;1.20;0.77;;;;;;;26.65;nan;62364.19;5014990;28;20250;-68
2023/09/12 10:11:22;;;;;;;0.50;0.50;;;;;;;26.85;nan;62583.16;5019981;28;20709;-67
2023/09/12 10:13:53;;;;;;;0.60;0.60;;;;;;;26.88;nan;62455.47;5016624;28;20176;-68
2023/09/12 10:16:29;;;;;;;0.40;0.40;;;;;;;26.70;nan;62529.28;5021623;28;20243;-68
2023/09/12 10:19:18;;;;;;;1.23;0.98;;;;;;;26.80;nan;62519.75;5015068;28;20179;-68
2023/09/12 10:21:50;;;;;;;0.52;0.52;;;;;;;26.66;nan;62440.81;5016146;28;20264;-67
2023/09/12 10:24:16;;;;;;;0.40;0.40;;;;;;;26.49;nan;62377.41;5014715;28;20180;-68
2023/09/12 10:26:45;;;;;;;0.50;0.50;;;;;;;26.71;nan;62457.00;5016392;28;20270;-68
2023/09/12 10:29:14;;;;;;;0.60;0.60;;;;;;;26.67;nan;62462.94;5014103;28;20171;-68
2023/09/12 10:31:40;;;;;;;0.40;0.40;;;;;;;26.67;nan;62586.16;5016472;28;20270;-67
2023/09/12 10:34:09;;;;;;;1.63;1.42;;;;;;;26.89;nan;62606.13;5013975;28;20271;-68
2023/09/12 10:36:38;;;;;;;0.40;0.40;;;;;;;26.77;nan;62451.31;5019435;28;20557;-68
2023/09/12 10:39:05;;;;;;;1.75;1.30;;;;;;;26.98;nan;62503.06;5013519;28;20679;-68
2023/09/12 10:41:31;;;;;;;0.68;0.68;;;;;;;27.06;nan;62504.31;5019198;28;20187;-69
2023/09/12 10:43:57;;;;;;;0.40;0.40;;;;;;;27.18;nan;62529.13;5014224;28;20254;-69
2023/09/12 10:46:23;;;;;;;0.65;0.65;;;;;;;27.13;nan;62512.34;5018867;28;20191;-69
2023/09/12 10:48:50;;;;;;;1.17;1.05;;;;;;;27.07;nan;62519.16;5014092;28;20183;-69
2023/09/12 10:51:17;;;;;;;0.70;0.70;;;;;;;27.19;nan;62467.28;5019042;28;20271;-68
2023/09/12 10:53:49;;;;;;;0.80;0.80;;;;;;;27.62;nan;62547.38;4996854;28;20180;-69
2023/09/12 10:56:17;;;;;;;1.13;0.98;;;;;;;27.23;nan;62481.78;5016099;28;20203;-68
2023/09/12 10:59:03;;;;;;;0.63;0.63;;;;;;;27.43;nan;62624.81;4996914;28;20204;-68
2023/09/12 11:01:30;;;;;;;0.60;0.60;;;;;;;27.43;nan;62523.00;5016183;28;20219;-69
2023/09/12 11:03:56;;;;;;;1.25;0.60;;;;;;;27.61;nan;62587.69;5013928;28;20183;-68
2023/09/12 11:06:28;;;;;;;0.40;0.40;;;;;;;27.47;nan;62511.25;5015825;28;20187;-68
2023/09/12 11:09:16;;;;;;;0.70;0.70;;;;;;;27.70;nan;62666.25;5013528;28;20238;-68
2023/09/12 11:11:42;;;;;;;0.50;0.50;;;;;;;27.61;nan;62635.53;5018927;28;20718;-69
2023/09/12 11:14:08;;;;;;;0.70;0.70;;;;;;;27.87;nan;62662.09;5013407;28;20615;-69
2023/09/12 11:16:35;;;;;;;0.68;0.68;;;;;;;27.80;nan;62614.69;5019054;28;20207;-68
2023/09/12 11:19:22;;;;;;;1.00;1.00;;;;;;;28.07;nan;62694.94;5013151;28;20661;-69
2023/09/12 11:21:50;;;;;;;0.52;0.52;;;;;;;28.31;nan;62645.66;5015202;28;20175;-68
2023/09/12 11:24:17;;;;;;;0.80;0.80;;;;;;;28.32;nan;62649.44;5013384;28;20603;-68
2023/09/12 11:27:05;;;;;;;0.50;0.50;;;;;;;28.42;nan;62844.97;5014612;28;20176;-69
2023/09/12 11:29:40;;;;;;;0.60;0.60;;;;;;;28.20;nan;62614.66;5013697;28;20190;-68
2023/09/12 11:32:07;;;;;;;0.80;0.80;;;;;;;28.35;nan;62687.03;5013262;28;20639;-69
2023/09/12 11:34:41;;;;;;;2.28;1.67;;;;;;;28.23;nan;62628.59;5014086;28;20281;-69
2023/09/12 11:37:07;;;;;;;0.30;0.30;;;;;;;28.18;nan;62712.84;5008569;28;20182;-67
2023/09/12 11:39:35;;;;;;;0.63;0.63;;;;;;;27.98;nan;62608.44;5014290;28;20179;-67
2023/09/12 11:42:02;;;;;;;0.70;0.70;;;;;;;28.05;nan;62677.47;5013555;28;20179;-69
2023/09/12 11:44:28;;;;;;;0.63;0.63;;;;;;;27.89;nan;62703.22;5013797;28;20265;-68
2023/09/12 11:47:02;;;;;;;0.50;0.50;;;;;;;27.94;nan;62578.16;5014478;28;20199;-68
2023/09/12 11:49:34;;;;;;;0.60;0.60;;;;;;;28.19;nan;62747.59;5012187;28;20175;-68